Time;durP1;ratioP1;P1;durP2;ratioP2;P2;SDS_P1;SDS_P2;PMS_P1;PMS_P2;Temp;Humidity;BMP_temperature;BMP_pressure;BME280_temperature;BME280_humidity;BME280_pressure;Samples;Min_cycle;Max_cycle;Signal;HPM_P1;HPM_P2
2021/08/24 00:00:37;;;;;;;2.67;1.47;;;;;;;;;;5118338;27;20545;-72
2021/08/24 00:03:04;;;;;;;5.20;2.30;;;;;;;;;;5118798;27;20486;-73
2021/08/24 00:05:38;;;;;;;3.77;2.60;;;;;;;;;;5118457;27;20458;-72
2021/08/24 00:08:08;;;;;;;4.07;2.20;;;;;;;;;;5118637;27;20458;-72
2021/08/24 00:10:38;;;;;;;4.30;2.63;;;;;;;;;;5118929;27;20770;-72
2021/08/24 00:13:09;;;;;;;4.10;2.10;;;;;;;;;;5117729;27;20454;-72
2021/08/24 00:15:36;;;;;;;2.83;1.80;;;;;;;;;;5118817;27;20455;-72
2021/08/24 00:18:04;;;;;;;4.00;2.10;;;;;;;;;;5118332;27;20543;-72
2021/08/24 00:20:32;;;;;;;3.20;1.90;;;;;;;;;;5119308;27;20820;-72
2021/08/24 00:23:04;;;;;;;3.23;2.40;;;;;;;;;;5118762;27;20466;-72
2021/08/24 00:25:34;;;;;;;3.63;2.57;;;;;;;;;;5118672;27;20886;-72
2021/08/24 00:28:02;;;;;;;4.70;2.57;;;;;;;;;;5118764;27;20523;-72
2021/08/24 00:30:29;;;;;;;3.27;2.43;;;;;;;;;;5119314;27;20455;-71
2021/08/24 00:32:57;;;;;;;4.27;2.10;;;;;;;;;;5118695;27;20493;-72
2021/08/24 00:35:25;;;;;;;4.07;2.10;;;;;;;;;;5119004;27;20459;-72
2021/08/24 00:37:54;;;;;;;6.80;2.47;;;;;;;;;;5118697;27;20467;-72
2021/08/24 00:40:21;;;;;;;3.60;2.00;;;;;;;;;;5118628;27;20516;-72
2021/08/24 00:42:51;;;;;;;5.00;2.10;;;;;;;;;;5118887;27;20509;-72
2021/08/24 00:45:19;;;;;;;7.30;2.20;;;;;;;;;;5118825;27;20470;-72
2021/08/24 00:47:48;;;;;;;2.20;1.60;;;;;;;;;;5118296;27;20554;-72
2021/08/24 00:50:20;;;;;;;5.70;2.27;;;;;;;;;;5118217;27;20490;-72
2021/08/24 00:52:49;;;;;;;4.20;2.20;;;;;;;;;;5117850;27;20516;-72
2021/08/24 00:55:17;;;;;;;2.87;1.70;;;;;;;;;;5117999;27;20559;-72
2021/08/24 00:57:46;;;;;;;3.40;2.30;;;;;;;;;;5118210;27;20813;-72
2021/08/24 01:00:16;;;;;;;3.00;2.00;;;;;;;;;;5117590;27;20466;-72
2021/08/24 01:02:44;;;;;;;4.00;2.67;;;;;;;;;;5118005;27;20538;-72
2021/08/24 01:05:12;;;;;;;3.53;2.07;;;;;;;;;;5117897;27;20487;-72
2021/08/24 01:07:43;;;;;;;4.23;1.93;;;;;;;;;;5117596;27;20537;-72
2021/08/24 01:10:14;;;;;;;4.70;2.77;;;;;;;;;;5118003;27;20489;-72
2021/08/24 01:12:48;;;;;;;3.00;2.30;;;;;;;;;;5117386;27;20754;-72
2021/08/24 01:15:24;;;;;;;4.73;2.63;;;;;;;;;;5117144;27;20542;-72
2021/08/24 01:17:56;;;;;;;2.93;2.33;;;;;;;;;;5117626;27;20465;-72
2021/08/24 01:20:30;;;;;;;5.67;2.23;;;;;;;;;;5117850;27;20573;-72
2021/08/24 01:23:27;;;;;;;3.30;2.20;;;;;;;;;;5117536;27;20538;-72
2021/08/24 01:25:59;;;;;;;3.67;2.07;;;;;;;;;;5117494;27;20515;-72
2021/08/24 01:28:31;;;;;;;3.70;2.23;;;;;;;;;;5117433;27;20542;-72
2021/08/24 01:31:04;;;;;;;4.13;2.10;;;;;;;;;;5116444;27;20550;-72
2021/08/24 01:33:34;;;;;;;6.20;1.93;;;;;;;;;;5117730;27;20463;-72
2021/08/24 01:36:09;;;;;;;3.33;2.00;;;;;;;;;;5117731;27;20462;-72
2021/08/24 01:38:41;;;;;;;4.67;2.37;;;;;;;;;;5117678;27;20450;-72
2021/08/24 01:41:11;;;;;;;5.60;2.47;;;;;;;;;;5117617;27;20473;-72
2021/08/24 01:43:41;;;;;;;3.63;2.10;;;;;;;;;;5117892;27;20523;-72
2021/08/24 01:46:14;;;;;;;6.53;3.40;;;;;;;;;;5117331;27;20454;-72
2021/08/24 01:48:43;;;;;;;4.20;2.50;;;;;;;;;;5117664;27;20461;-72
2021/08/24 01:51:16;;;;;;;4.43;2.50;;;;;;;;;;5117371;27;20811;-72
2021/08/24 01:53:45;;;;;;;5.90;2.00;;;;;;;;;;5117639;27;20451;-72
2021/08/24 01:56:14;;;;;;;2.97;2.00;;;;;;;;;;5117775;27;21034;-72
2021/08/24 01:58:46;;;;;;;3.93;2.30;;;;;;;;;;5117035;27;20459;-72
2021/08/24 02:01:16;;;;;;;4.57;2.00;;;;;;;;;;5117539;27;20458;-72
2021/08/24 02:03:47;;;;;;;4.53;1.67;;;;;;;;;;5117513;27;20500;-72
2021/08/24 02:06:19;;;;;;;2.97;2.10;;;;;;;;;;5117513;27;20557;-72
2021/08/24 02:08:49;;;;;;;4.80;1.80;;;;;;;;;;5117213;27;20439;-72
2021/08/24 02:11:17;;;;;;;5.43;1.80;;;;;;;;;;5117427;27;20540;-72
2021/08/24 02:13:47;;;;;;;4.50;2.63;;;;;;;;;;5117314;27;20549;-72
2021/08/24 02:16:18;;;;;;;4.57;2.70;;;;;;;;;;5116906;27;20490;-72
2021/08/24 02:18:48;;;;;;;3.00;1.97;;;;;;;;;;5117214;27;20455;-72
2021/08/24 02:21:19;;;;;;;2.57;2.00;;;;;;;;;;5117080;27;20470;-72
2021/08/24 02:23:48;;;;;;;4.57;2.80;;;;;;;;;;5117602;27;20458;-72
2021/08/24 02:26:18;;;;;;;4.30;2.67;;;;;;;;;;5117162;27;20473;-72
2021/08/24 02:28:48;;;;;;;3.97;2.73;;;;;;;;;;5121088;27;20450;-72
2021/08/24 02:31:22;;;;;;;3.40;2.10;;;;;;;;;;5120886;27;20555;-72
2021/08/24 02:33:53;;;;;;;6.80;2.57;;;;;;;;;;5121042;27;20462;-72
2021/08/24 02:36:24;;;;;;;2.63;2.13;;;;;;;;;;5120336;27;20462;-72
2021/08/24 02:38:56;;;;;;;5.30;1.97;;;;;;;;;;5120868;27;20927;-72
2021/08/24 02:41:25;;;;;;;3.30;2.30;;;;;;;;;;5120563;27;20498;-72
2021/08/24 02:43:59;;;;;;;4.10;2.03;;;;;;;;;;5120998;27;20537;-72
2021/08/24 02:46:29;;;;;;;3.83;2.50;;;;;;;;;;5120830;27;20701;-72
2021/08/24 02:48:58;;;;;;;6.27;3.23;;;;;;;;;;5120868;27;20740;-72
2021/08/24 02:51:28;;;;;;;3.83;2.00;;;;;;;;;;5120901;27;20927;-72
2021/08/24 02:53:57;;;;;;;6.13;2.13;;;;;;;;;;5120889;27;20465;-72
2021/08/24 02:56:25;;;;;;;3.80;2.23;;;;;;;;;;5120374;27;20497;-72
2021/08/24 02:58:53;;;;;;;5.23;2.03;;;;;;;;;;5120427;27;20455;-72
2021/08/24 03:01:20;;;;;;;5.17;2.53;;;;;;;;;;5120804;27;20458;-73
2021/08/24 03:03:48;;;;;;;4.50;2.93;;;;;;;;;;5120424;27;20478;-72
2021/08/24 03:06:16;;;;;;;8.20;4.10;;;;;;;;;;5120303;27;20471;-72
2021/08/24 03:08:46;;;;;;;5.63;2.10;;;;;;;;;;5120732;27;20738;-72
2021/08/24 03:11:16;;;;;;;4.47;2.90;;;;;;;;;;5120716;27;20490;-72
2021/08/24 03:13:45;;;;;;;5.30;2.43;;;;;;;;;;5120293;27;20462;-72
2021/08/24 03:16:16;;;;;;;3.83;2.40;;;;;;;;;;5119073;27;20458;-72
2021/08/24 03:18:47;;;;;;;5.47;2.43;;;;;;;;;;5120083;27;20470;-72
2021/08/24 03:21:17;;;;;;;4.43;2.60;;;;;;;;;;5119756;27;20760;-72
2021/08/24 03:23:47;;;;;;;4.93;2.10;;;;;;;;;;5119797;27;20528;-72
2021/08/24 03:26:15;;;;;;;3.63;2.77;;;;;;;;;;5119849;27;20460;-72
2021/08/24 03:28:44;;;;;;;3.67;2.20;;;;;;;;;;5119891;27;20750;-72
2021/08/24 03:31:15;;;;;;;4.47;2.20;;;;;;;;;;5120049;27;20494;-72
2021/08/24 03:33:43;;;;;;;3.90;2.30;;;;;;;;;;5119418;27;20474;-72
2021/08/24 03:36:10;;;;;;;4.53;2.30;;;;;;;;;;5119769;27;20812;-72
2021/08/24 03:38:38;;;;;;;4.83;2.53;;;;;;;;;;5119638;27;20470;-72
2021/08/24 03:41:08;;;;;;;4.20;2.90;;;;;;;;;;5119430;27;20753;-72
2021/08/24 03:43:36;;;;;;;4.70;3.17;;;;;;;;;;5119577;28;20553;-72
2021/08/24 03:46:04;;;;;;;4.27;2.40;;;;;;;;;;5120128;27;20497;-72
2021/08/24 03:48:32;;;;;;;8.33;2.90;;;;;;;;;;5118905;27;20466;-72
2021/08/24 03:51:03;;;;;;;5.53;2.43;;;;;;;;;;5119280;27;20587;-72
2021/08/24 03:53:30;;;;;;;3.93;2.50;;;;;;;;;;5119214;27;20490;-72
2021/08/24 03:55:58;;;;;;;5.57;3.83;;;;;;;;;;5119383;27;20858;-72
2021/08/24 03:58:27;;;;;;;5.00;2.27;;;;;;;;;;5118914;27;20478;-72
2021/08/24 04:00:55;;;;;;;3.50;2.27;;;;;;;;;;5119635;27;20549;-72
2021/08/24 04:03:23;;;;;;;9.60;2.50;;;;;;;;;;5119282;27;20451;-72
2021/08/24 04:05:50;;;;;;;4.27;2.80;;;;;;;;;;5119002;27;20466;-72
2021/08/24 04:08:18;;;;;;;6.03;2.77;;;;;;;;;;5118743;27;20486;-72
2021/08/24 04:10:46;;;;;;;4.00;2.53;;;;;;;;;;5118857;27;20486;-72
2021/08/24 04:13:13;;;;;;;6.30;2.80;;;;;;;;;;5118843;27;20572;-72
2021/08/24 04:15:43;;;;;;;5.13;3.20;;;;;;;;;;5118235;27;20462;-72
2021/08/24 04:18:15;;;;;;;8.23;2.80;;;;;;;;;;5118628;27;20450;-72
2021/08/24 04:20:43;;;;;;;3.63;2.37;;;;;;;;;;5100184;28;20598;-72
2021/08/24 04:23:16;;;;;;;5.00;2.33;;;;;;;;;;5118362;27;20839;-71
2021/08/24 04:25:44;;;;;;;4.70;2.70;;;;;;;;;;5118344;27;20519;-72
2021/08/24 04:28:12;;;;;;;5.57;2.97;;;;;;;;;;5118494;27;20450;-72
2021/08/24 04:30:40;;;;;;;3.40;2.93;;;;;;;;;;5118697;27;20486;-73
2021/08/24 04:33:12;;;;;;;4.53;2.73;;;;;;;;;;5118309;27;20501;-72
2021/08/24 04:35:43;;;;;;;11.30;4.70;;;;;;;;;;5117893;27;20454;-72
2021/08/24 04:38:10;;;;;;;4.87;2.93;;;;;;;;;;5117628;27;20458;-72
2021/08/24 04:40:41;;;;;;;5.27;3.23;;;;;;;;;;5117956;27;20469;-72
2021/08/24 04:43:09;;;;;;;4.10;2.43;;;;;;;;;;5111453;27;20451;-73
2021/08/24 04:45:36;;;;;;;4.43;2.90;;;;;;;;;;5098240;28;20466;-72
2021/08/24 04:48:04;;;;;;;2.93;2.00;;;;;;;;;;5097414;28;20923;-72
2021/08/24 04:50:33;;;;;;;7.33;4.27;;;;;;;;;;5096824;28;20505;-72
2021/08/24 04:53:01;;;;;;;6.70;3.43;;;;;;;;;;5106278;27;20443;-72
2021/08/24 04:55:29;;;;;;;11.70;3.53;;;;;;;;;;5118550;27;20459;-72
2021/08/24 04:57:58;;;;;;;4.07;2.33;;;;;;;;;;5117611;27;20454;-72
2021/08/24 05:00:27;;;;;;;3.83;2.90;;;;;;;;;;5118105;27;20523;-72
2021/08/24 05:02:54;;;;;;;6.40;3.80;;;;;;;;;;5117910;27;20704;-72
2021/08/24 05:05:23;;;;;;;4.90;3.30;;;;;;;;;;5117426;27;20546;-72
2021/08/24 05:07:52;;;;;;;4.80;2.50;;;;;;;;;;5117754;27;20467;-72
2021/08/24 05:10:22;;;;;;;4.73;3.40;;;;;;;;;;5117074;27;20503;-72
2021/08/24 05:12:50;;;;;;;4.20;3.10;;;;;;;;;;5117078;27;20895;-72
2021/08/24 05:15:23;;;;;;;7.73;3.97;;;;;;;;;;5117076;27;20450;-73
2021/08/24 05:17:55;;;;;;;11.10;4.00;;;;;;;;;;5117047;27;20492;-72
2021/08/24 05:20:23;;;;;;;4.43;2.80;;;;;;;;;;5117692;27;20486;-72
2021/08/24 05:22:53;;;;;;;7.67;3.60;;;;;;;;;;5103946;28;20758;-72
2021/08/24 05:25:22;;;;;;;3.40;2.80;;;;;;;;;;5111759;27;20477;-72
2021/08/24 05:27:55;;;;;;;4.43;3.00;;;;;;;;;;5104358;28;20459;-73
2021/08/24 05:30:24;;;;;;;4.93;3.00;;;;;;;;;;5105153;28;20486;-72
2021/08/24 05:32:54;;;;;;;4.67;2.40;;;;;;;;;;5106662;27;20455;-72
2021/08/24 05:35:24;;;;;;;3.90;2.33;;;;;;;;;;5105080;27;20465;-72
2021/08/24 05:37:54;;;;;;;6.93;2.57;;;;;;;;;;5096350;28;20463;-72
2021/08/24 05:40:21;;;;;;;3.20;2.33;;;;;;;;;;5097268;28;20459;-73
2021/08/24 05:42:49;;;;;;;10.00;2.77;;;;;;;;;;5107533;27;20557;-72
2021/08/24 05:45:17;;;;;;;4.10;2.80;;;;;;;;;;5116706;27;20497;-72
2021/08/24 05:47:57;;;;;;;4.07;2.93;;;;;;;;;;5116920;27;20886;-72
2021/08/24 05:50:32;;;;;;;4.17;2.83;;;;;;;;;;5095477;28;20471;-73
2021/08/24 05:53:01;;;;;;;3.10;2.37;;;;;;;;;;5096678;28;20487;-73
2021/08/24 05:55:42;;;;;;;4.77;3.40;;;;;;;;;;5095836;28;20531;-72
2021/08/24 05:58:14;;;;;;;6.47;3.10;;;;;;;;;;5095951;28;20467;-72
2021/08/24 06:00:42;;;;;;;3.83;2.37;;;;;;;;;;5096543;28;20452;-72
2021/08/24 06:03:10;;;;;;;7.33;3.50;;;;;;;;;;5104494;27;20505;-72
2021/08/24 06:05:39;;;;;;;4.27;2.90;;;;;;;;;;5112269;27;20465;-72
2021/08/24 06:08:12;;;;;;;4.90;4.10;;;;;;;;;;5107020;27;20546;-73
2021/08/24 06:10:49;;;;;;;4.77;2.23;;;;;;;;;;5120371;27;20816;-73
2021/08/24 06:13:17;;;;;;;4.97;3.00;;;;;;;;;;5117815;27;20473;-72
2021/08/24 06:15:45;;;;;;;6.00;3.57;;;;;;;;;;5099023;28;20752;-73
2021/08/24 06:18:12;;;;;;;4.27;2.47;;;;;;;;;;5098815;28;20491;-72
2021/08/24 06:20:41;;;;;;;4.10;3.23;;;;;;;;;;5100241;28;20465;-72
2021/08/24 06:23:11;;;;;;;4.97;3.27;;;;;;;;;;5098234;28;20466;-71
2021/08/24 06:25:39;;;;;;;5.60;2.97;;;;;;;;;;5111425;27;21046;-71
2021/08/24 06:28:07;;;;;;;5.37;3.13;;;;;;;;;;5104263;28;20470;-71
2021/08/24 06:30:38;;;;;;;7.40;3.40;;;;;;;;;;5114163;27;20478;-71
2021/08/24 06:33:10;;;;;;;9.03;3.37;;;;;;;;;;5099138;28;20832;-72
2021/08/24 06:35:41;;;;;;;10.37;3.70;;;;;;;;;;5098710;28;20451;-71
2021/08/24 06:38:11;;;;;;;4.73;2.50;;;;;;;;;;5103603;28;20504;-73
2021/08/24 06:40:40;;;;;;;4.37;2.70;;;;;;;;;;5100120;28;20487;-71
2021/08/24 06:43:08;;;;;;;3.83;2.20;;;;;;;;;;5113782;28;20806;-72
2021/08/24 06:45:42;;;;;;;4.70;2.60;;;;;;;;;;5118092;27;20443;-72
2021/08/24 06:48:09;;;;;;;5.70;2.67;;;;;;;;;;5101213;27;20487;-72
2021/08/24 06:50:41;;;;;;;4.87;3.57;;;;;;;;;;5107887;27;20478;-70
2021/08/24 06:53:10;;;;;;;3.83;2.47;;;;;;;;;;5111042;27;20522;-74
2021/08/24 06:55:44;;;;;;;4.27;2.57;;;;;;;;;;5107482;28;20466;-73
2021/08/24 06:58:21;;;;;;;4.00;2.43;;;;;;;;;;5105916;27;20451;-73
2021/08/24 07:00:58;;;;;;;6.77;2.70;;;;;;;;;;5112269;27;20518;-72
2021/08/24 07:03:30;;;;;;;11.13;5.10;;;;;;;;;;5106128;28;20957;-72
2021/08/24 07:06:04;;;;;;;4.30;2.03;;;;;;;;;;5108704;27;20634;-72
2021/08/24 07:08:38;;;;;;;6.37;2.53;;;;;;;;;;5105595;28;20736;-73
2021/08/24 07:11:17;;;;;;;4.77;1.83;;;;;;;;;;5114957;27;20559;-73
2021/08/24 07:13:53;;;;;;;3.13;1.73;;;;;;;;;;5105871;28;20446;-73
2021/08/24 07:16:27;;;;;;;3.40;1.50;;;;;;;;;;5120392;27;20497;-72
2021/08/24 07:18:58;;;;;;;2.60;1.60;;;;;;;;;;5118899;27;20458;-72
2021/08/24 07:21:29;;;;;;;4.17;1.87;;;;;;;;;;5120802;27;20478;-71
2021/08/24 07:23:57;;;;;;;19.90;12.57;;;;;;;;;;5119200;27;20454;-71
2021/08/24 07:26:53;;;;;;;4.57;2.43;;;;;;;;;;5110972;27;20557;-74
2021/08/24 07:29:40;;;;;;;3.53;1.70;;;;;;;;;;5103106;28;20903;-72
2021/08/24 07:32:16;;;;;;;4.30;2.20;;;;;;;;;;5099475;28;20537;-73
2021/08/24 07:34:44;;;;;;;4.63;2.20;;;;;;;;;;5099618;28;20451;-72
2021/08/24 07:37:14;;;;;;;3.67;1.93;;;;;;;;;;5100750;27;20482;-73
2021/08/24 07:39:49;;;;;;;5.40;2.83;;;;;;;;;;5101700;27;20461;-73
2021/08/24 07:42:22;;;;;;;6.10;2.13;;;;;;;;;;5101807;27;20493;-74
2021/08/24 07:44:55;;;;;;;4.43;3.10;;;;;;;;;;5118152;27;20737;-71
2021/08/24 07:47:24;;;;;;;3.37;1.77;;;;;;;;;;5113655;27;20462;-72
2021/08/24 07:49:57;;;;;;;4.27;1.87;;;;;;;;;;5101299;27;20464;-74
2021/08/24 07:52:29;;;;;;;5.30;2.17;;;;;;;;;;5107318;27;20483;-72
2021/08/24 07:54:57;;;;;;;5.10;1.57;;;;;;;;;;5118533;27;20571;-71
2021/08/24 07:57:25;;;;;;;3.80;2.07;;;;;;;;;;5113644;27;20459;-71
2021/08/24 07:59:54;;;;;;;4.13;1.73;;;;;;;;;;5113671;27;20561;-72
2021/08/24 08:02:28;;;;;;;2.93;1.60;;;;;;;;;;5107432;27;20512;-72
2021/08/24 08:04:56;;;;;;;6.27;2.60;;;;;;;;;;5120686;27;20449;-73
2021/08/24 08:07:30;;;;;;;3.00;1.50;;;;;;;;;;5109535;27;20452;-71
2021/08/24 08:09:58;;;;;;;2.80;1.50;;;;;;;;;;5120019;27;20504;-73
2021/08/24 08:12:28;;;;;;;26.03;19.30;;;;;;;;;;5105106;28;20926;-71
2021/08/24 08:15:00;;;;;;;5.13;3.90;;;;;;;;;;5101064;28;20836;-73
2021/08/24 08:17:28;;;;;;;6.43;1.90;;;;;;;;;;5104348;27;20472;-73
2021/08/24 08:19:59;;;;;;;5.37;3.03;;;;;;;;;;5106607;27;20450;-74
2021/08/24 08:22:34;;;;;;;7.17;1.67;;;;;;;;;;5101236;28;20558;-73
2021/08/24 08:25:03;;;;;;;5.80;1.33;;;;;;;;;;5107043;27;20465;-73
2021/08/24 08:27:31;;;;;;;2.97;1.80;;;;;;;;;;5113815;27;20458;-72
2021/08/24 08:30:00;;;;;;;4.00;1.67;;;;;;;;;;5118905;27;20451;-72
2021/08/24 08:32:37;;;;;;;3.77;1.37;;;;;;;;;;5117965;27;20578;-73
2021/08/24 08:35:20;;;;;;;3.07;1.20;;;;;;;;;;5119498;27;20478;-72
2021/08/24 08:37:51;;;;;;;3.67;1.90;;;;;;;;;;5118331;27;20462;-72
2021/08/24 08:40:22;;;;;;;5.70;2.33;;;;;;;;;;5117639;27;20549;-71
2021/08/24 08:42:59;;;;;;;2.67;1.30;;;;;;;;;;5102501;27;20511;-71
2021/08/24 08:45:35;;;;;;;3.90;2.23;;;;;;;;;;5101540;28;20455;-71
2021/08/24 08:48:25;;;;;;;2.47;1.90;;;;;;;;;;5116665;27;20458;-72
2021/08/24 08:51:00;;;;;;;2.87;1.90;;;;;;;;;;5103127;28;20467;-72
2021/08/24 08:53:34;;;;;;;3.30;2.20;;;;;;;;;;5118403;27;20466;-72
2021/08/24 08:56:07;;;;;;;3.10;1.60;;;;;;;;;;5105218;27;20505;-72
2021/08/24 09:01:34;;;;;;;3.97;1.90;;;;;;;;;;5093576;28;20452;-72
2021/08/24 09:04:10;;;;;;;3.43;1.50;;;;;;;;;;5104435;27;20451;-72
2021/08/24 09:06:44;;;;;;;1.73;1.20;;;;;;;;;;5097831;28;20527;-72
2021/08/24 09:09:12;;;;;;;2.30;1.33;;;;;;;;;;5096112;28;20458;-72
2021/08/24 09:11:42;;;;;;;3.70;1.50;;;;;;;;;;5109062;27;20715;-73
2021/08/24 09:14:15;;;;;;;3.30;2.10;;;;;;;;;;5096165;28;20916;-72
2021/08/24 09:16:48;;;;;;;2.90;1.53;;;;;;;;;;5095355;28;21083;-72
2021/08/24 09:19:19;;;;;;;2.20;1.33;;;;;;;;;;5096642;28;20742;-73
2021/08/24 09:21:48;;;;;;;2.17;1.43;;;;;;;;;;5112264;27;20463;-72
2021/08/24 09:24:22;;;;;;;3.93;2.47;;;;;;;;;;5107836;27;20451;-72
2021/08/24 09:27:04;;;;;;;3.33;1.80;;;;;;;;;;5095498;28;20466;-73
2021/08/24 09:29:58;;;;;;;;;;;;;;;;;;;;;
2021/08/24 09:32:34;;;;;;;2.90;1.80;;;;;;;;;;5101382;27;20493;-73
2021/08/24 09:35:08;;;;;;;2.87;1.53;;;;;;;;;;5104310;28;20528;-71
2021/08/24 09:40:40;;;;;;;2.60;1.40;;;;;;;;;;5090009;28;20463;-71
2021/08/24 09:43:28;;;;;;;2.30;1.23;;;;;;;;;;5097669;28;20447;-71
2021/08/24 09:46:26;;;;;;;3.50;2.13;;;;;;;;;;5098810;28;20475;-71
2021/08/24 09:49:05;;;;;;;4.13;2.70;;;;;;;;;;5100540;27;20469;-72
2021/08/24 09:51:46;;;;;;;2.77;1.60;;;;;;;;;;5108973;28;21156;-72
2021/08/24 09:54:29;;;;;;;4.07;2.10;;;;;;;;;;5105374;27;21034;-73
2021/08/24 09:57:05;;;;;;;3.90;2.17;;;;;;;;;;5106880;27;20552;-73
2021/08/24 09:59:35;;;;;;;3.47;1.97;;;;;;;;;;5098811;28;20469;-73
2021/08/24 10:02:04;;;;;;;3.17;1.87;;;;;;;;;;5103305;27;20470;-73
2021/08/24 10:04:49;;;;;;;2.50;1.77;;;;;;;;;;5098954;28;20495;-73
2021/08/24 10:07:31;;;;;;;4.57;1.90;;;;;;;;;;5111600;27;20466;-72
2021/08/24 10:10:00;;;;;;;4.50;2.73;;;;;;;;;;5114963;27;20886;-72
2021/08/24 10:12:36;;;;;;;4.10;2.63;;;;;;;;;;5113926;27;20945;-73
2021/08/24 10:15:31;;;;;;;2.93;1.50;;;;;;;;;;5094288;27;20456;-73
2021/08/24 10:18:05;;;;;;;3.40;1.87;;;;;;;;;;5099082;27;21064;-73
2021/08/24 10:20:57;;;;;;;6.53;3.23;;;;;;;;;;5097102;28;20558;-73
2021/08/24 10:23:37;;;;;;;4.03;2.50;;;;;;;;;;5096010;28;20529;-73
2021/08/24 10:26:11;;;;;;;5.57;3.70;;;;;;;;;;5097227;27;20447;-73
2021/08/24 10:28:40;;;;;;;4.33;2.50;;;;;;;;;;5113772;27;20491;-72
2021/08/24 10:31:22;;;;;;;4.87;2.97;;;;;;;;;;5100716;28;20817;-71
2021/08/24 10:33:59;;;;;;;3.33;1.60;;;;;;;;;;5111845;27;20493;-73
2021/08/24 10:39:27;;;;;;;4.53;2.63;;;;;;;;;;5106268;28;20543;-72
2021/08/24 10:42:26;;;;;;;5.30;4.13;;;;;;;;;;5108452;27;20455;-72
2021/08/24 10:45:03;;;;;;;5.40;4.00;;;;;;;;;;5107369;27;20516;-73
2021/08/24 10:47:33;;;;;;;8.30;3.97;;;;;;;;;;5108099;27;20487;-72
2021/08/24 10:52:53;;;;;;;3.63;2.10;;;;;;;;;;5099052;28;20486;-72
2021/08/24 10:55:33;;;;;;;6.73;4.37;;;;;;;;;;5107801;27;20446;-74
2021/08/24 10:58:20;;;;;;;3.77;2.10;;;;;;;;;;5099952;28;20470;-74
2021/08/24 11:01:28;;;;;;;4.93;2.93;;;;;;;;;;5099507;28;20918;-73
2021/08/24 11:07:04;;;;;;;5.77;4.00;;;;;;;;;;5108549;27;20478;-73
2021/08/24 11:09:57;;;;;;;3.70;1.87;;;;;;;;;;5099177;27;20471;-73
2021/08/24 11:12:30;;;;;;;4.00;2.47;;;;;;;;;;5106218;28;20478;-73
2021/08/24 11:15:06;;;;;;;3.73;2.40;;;;;;;;;;5104371;28;20512;-74
2021/08/24 11:17:42;;;;;;;5.10;3.50;;;;;;;;;;5109896;28;20508;-74
2021/08/24 11:20:25;;;;;;;8.10;3.70;;;;;;;;;;5103896;28;20505;-73
2021/08/24 11:23:24;;;;;;;4.93;2.50;;;;;;;;;;5115744;27;20771;-73
2021/08/24 11:26:00;;;;;;;12.00;7.53;;;;;;;;;;5105929;27;20454;-73
2021/08/24 11:28:31;;;;;;;7.30;3.37;;;;;;;;;;5106818;28;20463;-72
2021/08/24 11:31:05;;;;;;;6.50;3.50;;;;;;;;;;5106101;27;20471;-72
2021/08/24 11:33:35;;;;;;;4.10;2.67;;;;;;;;;;5099760;28;20475;-72
2021/08/24 11:36:04;;;;;;;3.80;2.90;;;;;;;;;;5102118;28;20566;-71
2021/08/24 11:38:40;;;;;;;5.63;3.07;;;;;;;;;;5109810;27;20497;-73
2021/08/24 11:41:11;;;;;;;6.43;1.97;;;;;;;;;;5096122;28;20475;-72
2021/08/24 11:43:45;;;;;;;4.33;2.80;;;;;;;;;;5099315;28;20614;-73
2021/08/24 11:46:20;;;;;;;3.50;1.70;;;;;;;;;;5099841;27;20562;-71
2021/08/24 11:48:48;;;;;;;6.67;3.93;;;;;;;;;;5114153;27;20706;-73
2021/08/24 11:51:22;;;;;;;3.57;2.30;;;;;;;;;;5104566;27;20535;-73
2021/08/24 11:53:55;;;;;;;4.50;2.33;;;;;;;;;;5104058;27;20482;-73
2021/08/24 11:56:29;;;;;;;4.40;2.73;;;;;;;;;;5097877;27;21100;-73
2021/08/24 11:58:57;;;;;;;4.77;2.80;;;;;;;;;;5105214;27;20468;-73
2021/08/24 12:01:27;;;;;;;3.07;2.30;;;;;;;;;;5103426;28;20902;-73
2021/08/24 12:03:56;;;;;;;3.90;2.83;;;;;;;;;;5106961;27;20806;-73
2021/08/24 12:06:27;;;;;;;4.27;3.03;;;;;;;;;;5102377;27;20450;-72
2021/08/24 12:08:57;;;;;;;3.63;2.17;;;;;;;;;;5103545;27;20462;-73
2021/08/24 12:11:43;;;;;;;3.93;2.30;;;;;;;;;;5106310;27;20470;-73
2021/08/24 12:14:21;;;;;;;4.70;3.17;;;;;;;;;;5097005;27;20530;-72
2021/08/24 12:16:56;;;;;;;4.30;2.80;;;;;;;;;;5102348;27;20464;-73
2021/08/24 12:19:29;;;;;;;3.93;2.70;;;;;;;;;;5099651;28;20459;-72
2021/08/24 12:21:58;;;;;;;4.00;2.23;;;;;;;;;;5103711;27;20449;-73
2021/08/24 12:24:41;;;;;;;3.10;2.07;;;;;;;;;;5104713;28;20537;-72
2021/08/24 12:27:28;;;;;;;4.83;2.40;;;;;;;;;;5102902;28;20580;-72
2021/08/24 12:30:11;;;;;;;4.93;2.70;;;;;;;;;;5099488;27;20455;-73
2021/08/24 12:32:56;;;;;;;3.33;1.93;;;;;;;;;;5105291;27;20486;-73
2021/08/24 12:35:37;;;;;;;4.43;2.20;;;;;;;;;;5104257;28;20458;-73
2021/08/24 12:38:29;;;;;;;3.27;2.43;;;;;;;;;;5099460;27;20734;-73
2021/08/24 12:40:58;;;;;;;3.87;1.90;;;;;;;;;;5104710;27;20910;-72
2021/08/24 12:43:53;;;;;;;5.03;2.53;;;;;;;;;;5104364;27;20462;-71
2021/08/24 12:46:31;;;;;;;4.20;1.70;;;;;;;;;;5104345;27;20805;-71
2021/08/24 12:49:29;;;;;;;3.07;2.00;;;;;;;;;;5107826;27;21094;-71
2021/08/24 12:51:59;;;;;;;3.00;1.87;;;;;;;;;;5106060;27;20455;-71
2021/08/24 12:54:30;;;;;;;4.50;2.10;;;;;;;;;;5099014;27;20534;-71
2021/08/24 12:57:20;;;;;;;4.13;2.37;;;;;;;;;;5104963;27;21061;-72
2021/08/24 12:59:52;;;;;;;4.30;2.73;;;;;;;;;;5103507;28;20477;-71
2021/08/24 13:02:29;;;;;;;3.40;1.97;;;;;;;;;;5112628;27;20519;-71
2021/08/24 13:04:59;;;;;;;3.80;2.30;;;;;;;;;;5099882;27;20463;-72
2021/08/24 13:07:35;;;;;;;4.10;2.10;;;;;;;;;;5100745;28;20457;-71
2021/08/24 13:10:22;;;;;;;4.50;2.47;;;;;;;;;;5111534;27;20454;-71
2021/08/24 13:12:53;;;;;;;4.30;2.80;;;;;;;;;;5109786;27;20486;-72
2021/08/24 13:15:42;;;;;;;7.00;5.67;;;;;;;;;;5112725;27;20450;-72
2021/08/24 13:18:18;;;;;;;4.17;2.53;;;;;;;;;;5093802;28;20506;-71
2021/08/24 13:20:47;;;;;;;3.87;2.30;;;;;;;;;;5094934;28;20817;-70
2021/08/24 13:23:23;;;;;;;3.33;2.30;;;;;;;;;;5094792;28;20479;-71
2021/08/24 13:25:56;;;;;;;6.87;3.60;;;;;;;;;;5094972;28;20813;-73
2021/08/24 13:28:30;;;;;;;3.37;2.33;;;;;;;;;;5094616;28;20752;-72
2021/08/24 13:31:00;;;;;;;4.60;3.40;;;;;;;;;;5094025;28;20885;-71
2021/08/24 13:33:34;;;;;;;3.90;2.30;;;;;;;;;;5098883;27;20923;-72
2021/08/24 13:36:10;;;;;;;5.13;2.13;;;;;;;;;;5098787;27;20458;-71
2021/08/24 13:38:45;;;;;;;4.00;2.53;;;;;;;;;;5105655;27;20450;-71
2021/08/24 13:41:19;;;;;;;3.40;2.10;;;;;;;;;;5105756;28;20511;-71
2021/08/24 13:43:53;;;;;;;4.07;2.33;;;;;;;;;;5104368;27;20517;-72
2021/08/24 13:46:27;;;;;;;3.60;2.30;;;;;;;;;;5105589;27;20447;-71
2021/08/24 13:49:05;;;;;;;4.90;2.43;;;;;;;;;;5100958;28;20807;-71
2021/08/24 13:51:48;;;;;;;4.10;2.20;;;;;;;;;;5104432;27;20548;-72
2021/08/24 13:54:17;;;;;;;4.50;2.67;;;;;;;;;;5093626;28;20552;-71
2021/08/24 13:56:51;;;;;;;4.37;2.60;;;;;;;;;;5108069;27;20458;-71
2021/08/24 13:59:22;;;;;;;5.27;2.37;;;;;;;;;;5114027;27;20906;-72
2021/08/24 14:01:51;;;;;;;8.20;2.77;;;;;;;;;;5113691;27;20557;-71
2021/08/24 14:04:23;;;;;;;4.00;2.10;;;;;;;;;;5093974;27;20546;-72
2021/08/24 14:06:58;;;;;;;3.70;2.37;;;;;;;;;;5093708;28;20731;-72
2021/08/24 14:09:29;;;;;;;5.70;2.73;;;;;;;;;;5108822;27;20572;-72
2021/08/24 14:11:59;;;;;;;4.33;2.20;;;;;;;;;;5113879;27;20538;-71
2021/08/24 14:14:39;;;;;;;4.70;2.90;;;;;;;;;;5096966;28;20548;-72
2021/08/24 14:17:17;;;;;;;3.57;1.60;;;;;;;;;;5096339;28;20912;-71
2021/08/24 14:19:49;;;;;;;3.70;2.60;;;;;;;;;;5109254;28;21211;-71
2021/08/24 14:22:18;;;;;;;5.20;2.87;;;;;;;;;;5109371;27;20451;-71
2021/08/24 14:24:46;;;;;;;7.47;5.33;;;;;;;;;;5098529;28;20557;-71
2021/08/24 14:27:16;;;;;;;5.90;4.23;;;;;;;;;;5101941;28;20952;-72
2021/08/24 14:29:44;;;;;;;4.87;2.53;;;;;;;;;;5099414;28;20789;-71
2021/08/24 14:32:34;;;;;;;3.90;2.30;;;;;;;;;;5105408;28;20625;-71
2021/08/24 14:35:06;;;;;;;4.23;2.73;;;;;;;;;;5103457;28;20486;-72
2021/08/24 14:37:45;;;;;;;3.67;2.10;;;;;;;;;;5103310;27;21041;-71
2021/08/24 14:40:19;;;;;;;5.60;4.30;;;;;;;;;;5120054;27;20515;-72
2021/08/24 14:42:48;;;;;;;6.40;4.10;;;;;;;;;;5108289;27;20444;-71
2021/08/24 14:45:47;;;;;;;5.93;2.80;;;;;;;;;;5097403;28;20601;-73
2021/08/24 14:48:32;;;;;;;3.87;2.73;;;;;;;;;;5098231;27;20458;-73
2021/08/24 14:51:03;;;;;;;8.40;2.73;;;;;;;;;;5107992;28;20447;-72
2021/08/24 14:53:33;;;;;;;3.97;2.20;;;;;;;;;;5115262;28;20474;-72
2021/08/24 14:56:20;;;;;;;9.00;5.33;;;;;;;;;;5110272;27;20735;-69
2021/08/24 14:59:06;;;;;;;9.43;2.23;;;;;;;;;;5104526;27;20448;-72
2021/08/24 15:01:41;;;;;;;4.20;3.10;;;;;;;;;;5098657;27;20439;-71
2021/08/24 15:04:16;;;;;;;3.93;2.70;;;;;;;;;;5101680;27;20884;-72
2021/08/24 15:06:57;;;;;;;9.00;4.77;;;;;;;;;;5103631;28;20463;-71
2021/08/24 15:09:33;;;;;;;4.50;2.70;;;;;;;;;;5104354;28;20499;-72
2021/08/24 15:12:06;;;;;;;3.43;2.10;;;;;;;;;;5115501;27;20483;-71
2021/08/24 15:14:38;;;;;;;11.43;5.77;;;;;;;;;;5110655;27;20472;-71
2021/08/24 15:17:09;;;;;;;2.83;1.67;;;;;;;;;;5095647;28;20850;-71
2021/08/24 15:19:47;;;;;;;3.87;2.10;;;;;;;;;;5107387;27;20471;-72
2021/08/24 15:22:23;;;;;;;4.07;2.37;;;;;;;;;;5103214;27;20471;-71
2021/08/24 15:24:53;;;;;;;5.80;2.03;;;;;;;;;;5114108;27;20453;-71
2021/08/24 15:27:24;;;;;;;9.40;2.20;;;;;;;;;;5116742;27;20519;-71
2021/08/24 15:30:18;;;;;;;3.20;2.20;;;;;;;;;;5112697;27;20522;-71
2021/08/24 15:32:52;;;;;;;6.07;2.90;;;;;;;;;;5082567;28;20724;-71